Time;durP1;ratioP1;P1;durP2;ratioP2;P2;SDS_P1;SDS_P2;PMS_P1;PMS_P2;Temp;Humidity;BMP_temperature;BMP_pressure;BME280_temperature;BME280_humidity;BME280_pressure;Samples;Min_cycle;Max_cycle;Signal;HPM_P1;HPM_P2
2022/11/17 00:01:59;;;;;;;;;19.75;13.25;;;;;;;;5135124;27;8785;-49
2022/11/17 00:04:43;;;;;;;;;14.25;12.50;;;;;;;;5135595;27;8778;-53
2022/11/17 00:07:28;;;;;;;;;20.25;14.00;;;;;;;;5141585;27;8770;-52
2022/11/17 00:10:12;;;;;;;;;14.75;11.00;;;;;;;;5141664;27;9593;-49
2022/11/17 00:15:59;;;;;;;;;18.25;15.75;;;;;;;;5141508;27;8802;-50
2022/11/17 00:21:47;;;;;;;;;17.75;12.00;;;;;;;;5141404;27;8770;-52
2022/11/17 00:24:31;;;;;;;;;22.25;15.00;;;;;;;;5141108;27;8766;-48
2022/11/17 00:27:16;;;;;;;;;35.00;26.00;;;;;;;;5141082;27;8793;-48
2022/11/17 00:30:00;;;;;;;;;20.50;15.00;;;;;;;;5141344;27;8778;-48
2022/11/17 00:35:51;;;;;;;;;28.25;20.25;;;;;;;;5140902;27;8774;-53
2022/11/17 00:38:35;;;;;;;;;30.50;18.00;;;;;;;;5140815;27;8794;-53
2022/11/17 00:41:20;;;;;;;;;32.00;25.00;;;;;;;;5140980;27;8790;-49
2022/11/17 00:44:04;;;;;;;;;30.25;21.25;;;;;;;;5140659;27;8810;-52
2022/11/17 00:46:49;;;;;;;;;25.50;21.50;;;;;;;;5140776;27;8773;-51
2022/11/17 00:49:33;;;;;;;;;26.50;17.75;;;;;;;;5140536;27;8810;-52
2022/11/17 00:52:17;;;;;;;;;25.50;17.75;;;;;;;;5140803;27;10268;-52
2022/11/17 00:55:02;;;;;;;;;24.50;19.00;;;;;;;;5140731;27;8825;-54
2022/11/17 00:57:46;;;;;;;;;28.00;21.00;;;;;;;;5140778;27;8778;-50
2022/11/17 01:00:31;;;;;;;;;24.75;19.75;;;;;;;;5140387;27;8798;-50
2022/11/17 01:03:15;;;;;;;;;18.50;15.25;;;;;;;;5140710;27;8778;-52
2022/11/17 01:06:07;;;;;;;;;17.75;14.00;;;;;;;;5140116;27;9674;-52
2022/11/17 01:08:51;;;;;;;;;20.50;15.50;;;;;;;;5119523;27;8781;-51
2022/11/17 01:11:35;;;;;;;;;29.25;20.50;;;;;;;;5119625;27;8792;-51
2022/11/17 01:14:22;;;;;;;;;18.00;12.50;;;;;;;;5135860;27;8810;-53
2022/11/17 01:17:06;;;;;;;;;22.75;19.00;;;;;;;;5140303;27;8794;-53
2022/11/17 01:19:51;;;;;;;;;14.75;12.50;;;;;;;;5139958;27;8782;-52
2022/11/17 01:22:36;;;;;;;;;16.75;13.75;;;;;;;;5140245;27;8806;-47
2022/11/17 01:25:20;;;;;;;;;18.75;13.75;;;;;;;;5140301;27;8778;-52
2022/11/17 01:28:04;;;;;;;;;13.00;9.25;;;;;;;;5140194;27;8782;-50
2022/11/17 01:30:48;;;;;;;;;26.75;19.00;;;;;;;;5140010;27;8790;-52
2022/11/17 01:33:33;;;;;;;;;21.00;12.75;;;;;;;;5140049;27;8806;-52
2022/11/17 01:36:19;;;;;;;;;15.75;13.50;;;;;;;;5139958;27;8778;-52
2022/11/17 01:39:03;;;;;;;;;13.75;12.00;;;;;;;;5139657;27;8790;-49
2022/11/17 01:41:48;;;;;;;;;13.00;10.00;;;;;;;;5139908;27;8786;-51
2022/11/17 01:44:35;;;;;;;;;12.25;9.75;;;;;;;;5123562;27;8856;-51
2022/11/17 01:47:20;;;;;;;;;13.50;12.50;;;;;;;;5123209;27;9553;-52
2022/11/17 01:50:07;;;;;;;;;13.50;10.00;;;;;;;;5139450;27;8833;-52
2022/11/17 01:52:54;;;;;;;;;11.50;9.00;;;;;;;;5139669;27;8794;-47
2022/11/17 01:56:09;;;;;;;;;11.75;10.75;;;;;;;;5139713;27;8798;-50
2022/11/17 01:58:57;;;;;;;;;22.50;15.25;;;;;;;;5139264;27;8806;-50
2022/11/17 02:01:54;;;;;;;;;11.00;9.50;;;;;;;;5139778;27;8770;-53
2022/11/17 02:04:41;;;;;;;;;10.75;10.00;;;;;;;;5139393;27;8774;-48
2022/11/17 02:07:27;;;;;;;;;8.50;8.50;;;;;;;;5139200;27;8778;-49
2022/11/17 02:10:12;;;;;;;;;9.50;9.50;;;;;;;;5139123;27;8782;-53
2022/11/17 02:12:56;;;;;;;;;11.00;8.00;;;;;;;;5139370;27;8790;-52
2022/11/17 02:15:41;;;;;;;;;12.75;11.00;;;;;;;;5139237;27;9565;-50
2022/11/17 02:18:25;;;;;;;;;12.25;9.50;;;;;;;;5138144;27;8782;-48
2022/11/17 02:21:20;;;;;;;;;17.25;12.50;;;;;;;;5138949;27;8779;-52
2022/11/17 02:24:07;;;;;;;;;10.25;9.00;;;;;;;;5138952;27;8810;-54
2022/11/17 02:27:09;;;;;;;;;12.00;9.50;;;;;;;;5123343;27;8802;-52
2022/11/17 02:30:04;;;;;;;;;10.50;10.50;;;;;;;;5123796;27;9549;-51
2022/11/17 02:32:59;;;;;;;;;14.25;10.75;;;;;;;;5139076;27;8778;-50
2022/11/17 02:35:51;;;;;;;;;18.25;13.75;;;;;;;;5138865;27;8806;-48
2022/11/17 02:38:49;;;;;;;;;27.50;19.25;;;;;;;;5138485;27;9553;-51
2022/11/17 02:41:33;;;;;;;;;19.25;17.75;;;;;;;;5138499;27;8779;-50
2022/11/17 02:44:32;;;;;;;;;24.50;18.00;;;;;;;;5138458;27;8814;-49
2022/11/17 02:47:21;;;;;;;;;23.50;16.50;;;;;;;;5138575;27;8912;-50
2022/11/17 02:50:06;;;;;;;;;20.50;17.25;;;;;;;;5138703;27;8798;-53
2022/11/17 02:52:51;;;;;;;;;21.00;13.50;;;;;;;;5138559;27;8790;-51
2022/11/17 02:55:37;;;;;;;;;13.25;12.75;;;;;;;;5138244;27;8794;-50
2022/11/17 02:58:21;;;;;;;;;21.75;15.50;;;;;;;;5138389;27;8789;-52
2022/11/17 03:01:18;;;;;;;;;14.50;13.00;;;;;;;;5138380;27;8794;-53
2022/11/17 03:04:16;;;;;;;;;10.75;10.00;;;;;;;;5138589;27;9561;-52
2022/11/17 03:07:27;;;;;;;;;11.00;8.00;;;;;;;;5122732;27;8785;-51
2022/11/17 03:10:17;;;;;;;;;12.25;11.25;;;;;;;;5132472;27;9573;-52
2022/11/17 03:13:22;;;;;;;;;16.50;11.75;;;;;;;;5122582;27;8796;-53
2022/11/17 03:16:12;;;;;;;;;21.25;15.75;;;;;;;;5117654;27;8808;-52
2022/11/17 03:18:56;;;;;;;;;12.75;12.50;;;;;;;;5117522;27;10060;-51
2022/11/17 03:21:46;;;;;;;;;18.50;14.50;;;;;;;;5117167;27;8796;-53
2022/11/17 03:24:34;;;;;;;;;11.75;11.00;;;;;;;;5117354;27;8804;-54
2022/11/17 03:27:39;;;;;;;;;12.50;11.00;;;;;;;;5133204;27;8806;-51
2022/11/17 03:30:24;;;;;;;;;17.25;13.75;;;;;;;;5137870;27;8774;-54
2022/11/17 03:33:14;;;;;;;;;17.75;14.00;;;;;;;;5137993;27;8758;-51
2022/11/17 03:36:19;;;;;;;;;15.50;11.75;;;;;;;;5137757;27;8786;-51
2022/11/17 03:39:08;;;;;;;;;16.25;12.00;;;;;;;;5137682;27;8818;-54
2022/11/17 03:41:58;;;;;;;;;16.75;11.50;;;;;;;;5137251;27;8786;-51
2022/11/17 03:44:44;;;;;;;;;11.75;9.50;;;;;;;;5137627;27;8805;-50
2022/11/17 03:47:30;;;;;;;;;10.50;8.75;;;;;;;;5137443;27;8853;-53
2022/11/17 03:50:17;;;;;;;;;14.75;10.25;;;;;;;;5137983;27;8782;-53
2022/11/17 03:53:02;;;;;;;;;12.00;9.75;;;;;;;;5137605;27;8790;-50
2022/11/17 03:55:54;;;;;;;;;14.75;10.00;;;;;;;;5119433;27;8954;-52
2022/11/17 03:58:45;;;;;;;;;13.50;11.00;;;;;;;;5117357;27;8793;-50
2022/11/17 04:01:30;;;;;;;;;11.75;9.00;;;;;;;;5116716;27;8781;-50
2022/11/17 04:04:15;;;;;;;;;15.25;11.75;;;;;;;;5130552;27;8798;-49
2022/11/17 04:06:59;;;;;;;;;13.50;10.00;;;;;;;;5137287;27;8782;-50
2022/11/17 04:09:43;;;;;;;;;14.00;10.25;;;;;;;;5137290;27;8782;-52
2022/11/17 04:15:55;;;;;;;;;9.50;9.50;;;;;;;;5137476;27;8794;-50
2022/11/17 04:18:35;;;;;;;;;10.00;9.25;;;;;;;;5137569;27;8786;-53
2022/11/17 04:21:20;;;;;;;;;24.75;20.25;;;;;;;;5137784;27;8785;-53
2022/11/17 04:24:04;;;;;;;;;15.00;9.75;;;;;;;;5137722;27;8794;-48
2022/11/17 04:29:51;;;;;;;;;15.00;7.75;;;;;;;;5137539;27;8778;-53
2022/11/17 04:32:36;;;;;;;;;8.50;8.00;;;;;;;;5137828;27;8778;-52
2022/11/17 04:35:20;;;;;;;;;9.00;9.00;;;;;;;;5128379;27;8821;-50
2022/11/17 04:38:04;;;;;;;;;17.25;12.75;;;;;;;;5137637;27;8786;-53
2022/11/17 04:43:52;;;;;;;;;11.75;9.00;;;;;;;;5140758;27;8802;-52
2022/11/17 04:46:37;;;;;;;;;11.50;11.50;;;;;;;;5133928;27;8781;-48
2022/11/17 04:49:22;;;;;;;;;13.50;12.25;;;;;;;;5140503;27;8798;-49
2022/11/17 04:52:07;;;;;;;;;17.50;16.50;;;;;;;;5120148;27;8789;-51
2022/11/17 04:54:51;;;;;;;;;21.00;17.00;;;;;;;;5119984;27;8820;-51
2022/11/17 04:57:35;;;;;;;;;26.25;20.25;;;;;;;;5138957;27;8806;-50
2022/11/17 05:00:20;;;;;;;;;21.00;21.00;;;;;;;;5138547;27;8782;-55
2022/11/17 05:03:05;;;;;;;;;20.00;19.00;;;;;;;;5122187;27;8805;-50
2022/11/17 05:05:49;;;;;;;;;22.00;19.25;;;;;;;;5136590;27;8794;-52
2022/11/17 05:08:34;;;;;;;;;19.75;18.50;;;;;;;;5120084;27;8784;-51
2022/11/17 05:14:22;;;;;;;;;20.25;19.50;;;;;;;;5119707;27;8812;-50
2022/11/17 05:17:09;;;;;;;;;21.75;21.25;;;;;;;;5119838;27;8773;-49
2022/11/17 05:19:53;;;;;;;;;21.75;20.75;;;;;;;;5134149;27;8777;-53
2022/11/17 05:25:40;;;;;;;;;28.50;24.25;;;;;;;;5140688;27;8778;-50
2022/11/17 05:28:26;;;;;;;;;30.75;22.00;;;;;;;;5140409;27;8813;-53
2022/11/17 05:31:10;;;;;;;;;23.25;22.00;;;;;;;;5140331;27;8782;-51
2022/11/17 05:33:54;;;;;;;;;25.00;23.00;;;;;;;;5139969;27;8822;-49
2022/11/17 05:36:39;;;;;;;;;27.00;22.00;;;;;;;;5119366;27;8788;-52
2022/11/17 05:39:23;;;;;;;;;28.25;25.50;;;;;;;;5120095;27;8772;-50
2022/11/17 05:42:08;;;;;;;;;36.00;31.50;;;;;;;;5118784;27;8789;-50
2022/11/17 05:44:52;;;;;;;;;34.00;27.00;;;;;;;;5118889;27;8789;-52
2022/11/17 05:47:37;;;;;;;;;41.00;32.00;;;;;;;;5118953;27;8776;-52
2022/11/17 05:50:21;;;;;;;;;36.50;30.25;;;;;;;;5118721;27;8792;-52
2022/11/17 05:53:06;;;;;;;;;40.75;30.50;;;;;;;;5136278;27;8762;-51
2022/11/17 05:56:03;;;;;;;;;34.00;26.00;;;;;;;;5130393;27;8737;-52
2022/11/17 05:58:49;;;;;;;;;37.25;30.00;;;;;;;;5118850;27;8796;-55
2022/11/17 06:01:35;;;;;;;;;33.50;30.00;;;;;;;;5137575;27;8790;-52
2022/11/17 06:04:20;;;;;;;;;20.25;19.75;;;;;;;;5139161;27;9565;-53
2022/11/17 06:07:04;;;;;;;;;40.50;33.00;;;;;;;;5139485;27;8802;-49
2022/11/17 06:09:49;;;;;;;;;39.00;33.75;;;;;;;;5139316;27;8911;-52
2022/11/17 06:12:34;;;;;;;;;38.25;32.25;;;;;;;;5139232;27;8786;-49
2022/11/17 06:15:19;;;;;;;;;32.00;30.00;;;;;;;;5139270;27;8945;-55
2022/11/17 06:18:12;;;;;;;;;41.75;33.50;;;;;;;;5139141;27;9546;-55
2022/11/17 06:20:57;;;;;;;;;38.50;34.00;;;;;;;;5124921;27;8782;-53
2022/11/17 06:23:43;;;;;;;;;41.00;34.25;;;;;;;;5138769;27;8782;-50
2022/11/17 06:26:27;;;;;;;;;45.25;33.25;;;;;;;;5138471;27;8778;-49
2022/11/17 06:29:12;;;;;;;;;45.50;36.00;;;;;;;;5138755;27;9560;-55
2022/11/17 06:31:57;;;;;;;;;39.75;33.50;;;;;;;;5138748;27;8778;-50
2022/11/17 06:34:42;;;;;;;;;44.25;35.75;;;;;;;;5138491;27;8841;-49
2022/11/17 06:37:26;;;;;;;;;44.50;35.00;;;;;;;;5138428;27;8794;-53
2022/11/17 06:40:12;;;;;;;;;48.50;35.75;;;;;;;;5117912;27;8773;-52
2022/11/17 07:23:08;;;;;;;;;44.75;36.00;;;;;;;;4296350;32;51689;-51
2022/11/17 07:25:52;;;;;;;;;44.25;35.50;;;;;;;;5056654;28;51480;-52
2022/11/17 07:28:37;;;;;;;;;50.75;37.50;;;;;;;;5056430;28;51519;-54
2022/11/17 07:31:21;;;;;;;;;40.00;33.75;;;;;;;;5056585;28;51052;-50
2022/11/17 07:34:05;;;;;;;;;42.75;33.75;;;;;;;;5056114;28;51664;-53
2022/11/17 07:36:50;;;;;;;;;43.50;35.50;;;;;;;;5055981;28;52141;-51
2022/11/17 07:39:34;;;;;;;;;45.50;36.75;;;;;;;;5056957;28;51037;-50
2022/11/17 07:42:19;;;;;;;;;42.25;33.75;;;;;;;;5056099;28;51088;-52
2022/11/17 07:45:04;;;;;;;;;42.50;34.00;;;;;;;;5056638;28;51188;-49
2022/11/17 07:47:54;;;;;;;;;36.25;30.00;;;;;;;;5056292;28;51078;-49
2022/11/17 07:50:39;;;;;;;;;32.00;29.50;;;;;;;;5056025;28;51164;-56
2022/11/17 07:53:24;;;;;;;;;37.00;30.75;;;;;;;;5055206;28;51433;-55
2022/11/17 07:56:09;;;;;;;;;40.00;31.50;;;;;;;;5054799;28;51181;-48
2022/11/17 07:58:54;;;;;;;;;33.75;31.00;;;;;;;;5056076;28;51577;-51
2022/11/17 08:01:39;;;;;;;;;41.75;30.50;;;;;;;;5055090;28;51067;-55
2022/11/17 08:04:23;;;;;;;;;39.50;32.50;;;;;;;;5055540;28;51343;-53
2022/11/17 08:07:07;;;;;;;;;38.25;32.00;;;;;;;;5055401;28;51172;-52
2022/11/17 08:09:51;;;;;;;;;36.75;31.00;;;;;;;;5056040;28;51181;-50
2022/11/17 08:12:36;;;;;;;;;33.00;29.50;;;;;;;;5052329;28;51185;-52
2022/11/17 08:15:21;;;;;;;;;33.00;27.75;;;;;;;;5055935;28;51037;-50
2022/11/17 08:18:05;;;;;;;;;26.25;25.00;;;;;;;;5055542;28;51005;-49
2022/11/17 08:20:50;;;;;;;;;32.75;28.00;;;;;;;;5055388;28;51089;-48
2022/11/17 08:23:34;;;;;;;;;29.50;27.00;;;;;;;;5044525;28;51563;-50
2022/11/17 08:26:23;;;;;;;;;29.00;25.50;;;;;;;;5041552;28;51168;-52
2022/11/17 08:29:07;;;;;;;;;23.25;23.25;;;;;;;;5042227;28;51144;-51
2022/11/17 08:31:52;;;;;;;;;28.25;23.00;;;;;;;;5041724;28;51552;-50
2022/11/17 08:34:36;;;;;;;;;29.00;25.75;;;;;;;;5041424;28;51450;-51
2022/11/17 08:37:21;;;;;;;;;27.50;24.75;;;;;;;;5041678;28;51141;-50
2022/11/17 08:40:05;;;;;;;;;27.00;25.00;;;;;;;;5041074;28;51065;-52
2022/11/17 08:42:52;;;;;;;;;27.50;25.25;;;;;;;;5041302;28;50993;-50
2022/11/17 08:45:36;;;;;;;;;30.00;25.50;;;;;;;;5041728;28;51060;-52
2022/11/17 08:48:21;;;;;;;;;25.50;23.00;;;;;;;;5041591;28;51076;-53
2022/11/17 08:51:06;;;;;;;;;23.00;22.00;;;;;;;;5040864;28;51176;-53
2022/11/17 08:53:50;;;;;;;;;22.50;19.25;;;;;;;;5042200;28;51141;-50
2022/11/17 08:56:35;;;;;;;;;22.75;21.75;;;;;;;;5041440;28;51633;-55
2022/11/17 08:59:19;;;;;;;;;27.25;22.75;;;;;;;;5041500;28;52407;-50
2022/11/17 09:02:04;;;;;;;;;29.25;22.75;;;;;;;;5041239;28;51135;-52
2022/11/17 09:04:49;;;;;;;;;17.75;17.00;;;;;;;;5041584;28;51171;-49
2022/11/17 09:07:34;;;;;;;;;20.75;16.50;;;;;;;;5034874;28;51547;-54
2022/11/17 09:10:19;;;;;;;;;20.25;18.00;;;;;;;;5039543;28;51178;-54
2022/11/17 09:13:04;;;;;;;;;22.00;18.75;;;;;;;;5040200;28;51130;-51
2022/11/17 09:15:48;;;;;;;;;24.75;22.25;;;;;;;;5041002;28;51094;-52
2022/11/17 09:18:35;;;;;;;;;19.75;19.00;;;;;;;;5041168;28;51110;-44
2022/11/17 09:21:19;;;;;;;;;16.75;14.25;;;;;;;;5034841;28;51879;-43
2022/11/17 09:24:04;;;;;;;;;15.25;12.75;;;;;;;;5037043;28;51241;-45
2022/11/17 09:26:48;;;;;;;;;17.25;12.25;;;;;;;;5040422;28;51066;-44
2022/11/17 09:29:32;;;;;;;;;16.00;12.75;;;;;;;;5041532;28;51063;-47
2022/11/17 09:32:18;;;;;;;;;13.00;12.00;;;;;;;;5040735;28;51031;-44
2022/11/17 09:35:05;;;;;;;;;16.75;12.50;;;;;;;;5038912;28;51136;-43
2022/11/17 09:37:50;;;;;;;;;20.50;14.25;;;;;;;;5040831;28;51053;-46
2022/11/17 09:40:35;;;;;;;;;14.75;12.25;;;;;;;;5040372;28;51160;-45
2022/11/17 09:43:26;;;;;;;;;15.50;11.00;;;;;;;;5040184;28;51490;-46
2022/11/17 09:46:20;;;;;;;;;18.25;15.00;;;;;;;;5040182;28;51212;-45
2022/11/17 09:49:12;;;;;;;;;15.00;12.75;;;;;;;;5040959;28;51347;-45
2022/11/17 09:52:02;;;;;;;;;14.00;13.25;;;;;;;;5038577;28;51366;-45
2022/11/17 09:54:46;;;;;;;;;11.75;10.00;;;;;;;;5031649;28;51128;-44
2022/11/17 09:57:46;;;;;;;;;15.00;12.50;;;;;;;;5040420;28;51186;-45
2022/11/17 10:00:31;;;;;;;;;13.00;10.00;;;;;;;;5040321;28;51081;-43
2022/11/17 10:03:20;;;;;;;;;13.50;9.00;;;;;;;;5040420;28;51075;-46
2022/11/17 10:06:11;;;;;;;;;19.00;13.25;;;;;;;;5035874;28;51429;-47
2022/11/17 10:08:59;;;;;;;;;11.00;8.75;;;;;;;;5040070;28;51077;-45
2022/11/17 10:11:43;;;;;;;;;12.50;11.50;;;;;;;;5040198;28;51441;-44
2022/11/17 10:14:28;;;;;;;;;14.50;9.50;;;;;;;;5040070;28;51241;-46
2022/11/17 10:17:13;;;;;;;;;14.75;11.50;;;;;;;;5038415;28;51155;-46
2022/11/17 10:19:57;;;;;;;;;17.50;14.00;;;;;;;;5038450;28;51439;-44
2022/11/17 10:22:42;;;;;;;;;9.50;8.00;;;;;;;;5030950;28;51448;-48
2022/11/17 10:25:37;;;;;;;;;10.50;9.75;;;;;;;;5038166;28;51186;-43
2022/11/17 10:28:26;;;;;;;;;14.75;11.00;;;;;;;;5039815;28;51382;-47
2022/11/17 10:31:09;;;;;;;;;11.75;8.50;;;;;;;;5039376;28;50984;-46
2022/11/17 10:33:54;;;;;;;;;10.75;10.00;;;;;;;;5032115;28;51042;-46
2022/11/17 10:36:46;;;;;;;;;11.00;9.00;;;;;;;;5038747;28;51053;-45
2022/11/17 10:39:33;;;;;;;;;15.00;10.25;;;;;;;;5039367;28;51345;-47
2022/11/17 10:42:23;;;;;;;;;14.75;12.25;;;;;;;;5039446;28;51183;-45
2022/11/17 10:45:15;;;;;;;;;15.00;11.25;;;;;;;;5039301;28;50995;-45
2022/11/17 10:48:09;;;;;;;;;13.00;11.00;;;;;;;;5039094;28;51589;-47
2022/11/17 10:50:58;;;;;;;;;11.25;10.00;;;;;;;;5039471;28;51167;-44
2022/11/17 10:53:43;;;;;;;;;12.75;8.25;;;;;;;;5039350;28;51362;-44
2022/11/17 10:56:27;;;;;;;;;11.00;9.75;;;;;;;;5038633;28;51103;-47
2022/11/17 10:59:14;;;;;;;;;12.75;10.00;;;;;;;;5039502;28;51150;-44
2022/11/17 11:02:18;;;;;;;;;8.50;8.50;;;;;;;;5039227;28;51338;-46
2022/11/17 11:05:10;;;;;;;;;13.50;10.00;;;;;;;;5035846;28;51344;-45
2022/11/17 11:08:14;;;;;;;;;1.25;0.25;;;;;;;;5038484;28;51088;-44
2022/11/17 11:10:59;;;;;;;;;12.00;8.25;;;;;;;;5039163;28;50991;-48
2022/11/17 11:13:47;;;;;;;;;11.50;10.50;;;;;;;;5038847;28;51474;-45
2022/11/17 11:16:31;;;;;;;;;11.75;9.25;;;;;;;;5038590;28;51374;-45
2022/11/17 11:19:17;;;;;;;;;9.00;7.50;;;;;;;;5038261;28;51105;-47
2022/11/17 11:22:02;;;;;;;;;14.50;9.25;;;;;;;;5035414;28;51372;-45
2022/11/17 11:24:52;;;;;;;;;11.50;10.25;;;;;;;;5037613;28;51241;-45
2022/11/17 11:28:04;;;;;;;;;11.75;10.00;;;;;;;;5037054;28;51566;-42
2022/11/17 11:30:48;;;;;;;;;10.50;8.50;;;;;;;;5038333;28;51125;-44
2022/11/17 11:33:48;;;;;;;;;10.00;10.00;;;;;;;;5038624;28;51081;-43
2022/11/17 11:36:43;;;;;;;;;10.50;8.75;;;;;;;;5037444;28;51181;-45
2022/11/17 11:39:39;;;;;;;;;15.00;10.25;;;;;;;;5038633;28;51246;-44
2022/11/17 11:42:42;;;;;;;;;10.75;7.50;;;;;;;;5038599;28;51069;-44
2022/11/17 11:45:45;;;;;;;;;9.75;8.75;;;;;;;;5031302;28;51445;-45
2022/11/17 11:48:30;;;;;;;;;8.75;7.00;;;;;;;;5029699;28;51161;-43
2022/11/17 11:51:20;;;;;;;;;11.00;9.75;;;;;;;;5035081;28;51207;-45
2022/11/17 11:54:04;;;;;;;;;13.50;12.25;;;;;;;;5036108;28;51475;-44
2022/11/17 11:56:49;;;;;;;;;9.75;8.25;;;;;;;;5036886;28;51234;-45
2022/11/17 11:59:49;;;;;;;;;11.00;9.00;;;;;;;;5041248;28;51308;-43
2022/11/17 12:02:33;;;;;;;;;10.00;10.00;;;;;;;;5041535;28;51151;-45
2022/11/17 12:05:17;;;;;;;;;12.25;10.00;;;;;;;;5041831;28;51116;-43
2022/11/17 12:08:02;;;;;;;;;11.00;10.75;;;;;;;;5042070;28;51141;-45
2022/11/17 12:10:57;;;;;;;;;13.50;11.25;;;;;;;;5042057;28;51283;-44
2022/11/17 12:13:42;;;;;;;;;14.25;11.00;;;;;;;;5037133;28;51176;-46
2022/11/17 12:16:27;;;;;;;;;12.25;10.50;;;;;;;;5040818;28;51070;-46
2022/11/17 12:19:29;;;;;;;;;10.25;9.25;;;;;;;;5041506;28;51153;-43
2022/11/17 12:22:34;;;;;;;;;9.50;8.50;;;;;;;;5041427;28;51130;-45
2022/11/17 12:25:23;;;;;;;;;11.75;9.25;;;;;;;;5039791;28;51049;-44
2022/11/17 12:28:25;;;;;;;;;12.00;9.25;;;;;;;;5041817;28;51231;-42
2022/11/17 12:31:10;;;;;;;;;12.00;12.00;;;;;;;;5040670;28;51507;-45
2022/11/17 12:34:00;;;;;;;;;14.50;11.50;;;;;;;;5042106;28;51093;-44
2022/11/17 12:37:05;;;;;;;;;11.25;10.50;;;;;;;;5040763;28;51368;-44
2022/11/17 12:40:27;;;;;;;;;11.50;10.50;;;;;;;;5041222;28;51117;-44
2022/11/17 12:43:14;;;;;;;;;11.50;9.75;;;;;;;;5035002;28;51086;-46
2022/11/17 12:46:03;;;;;;;;;14.50;9.50;;;;;;;;5040052;28;51415;-45
2022/11/17 12:49:05;;;;;;;;;12.00;9.50;;;;;;;;5039695;28;51504;-44
2022/11/17 12:51:55;;;;;;;;;12.25;10.75;;;;;;;;5035937;28;51192;-44
2022/11/17 12:54:52;;;;;;;;;10.50;10.50;;;;;;;;5041610;28;51198;-44
2022/11/17 12:57:36;;;;;;;;;11.75;9.25;;;;;;;;5040262;28;51123;-44
2022/11/17 13:00:22;;;;;;;;;12.75;11.25;;;;;;;;5039982;28;51336;-44
2022/11/17 13:03:17;;;;;;;;;12.75;11.25;;;;;;;;5041205;28;51373;-43
2022/11/17 13:06:09;;;;;;;;;14.50;10.25;;;;;;;;5040909;28;51258;-43
2022/11/17 13:08:59;;;;;;;;;15.00;9.50;;;;;;;;5040128;28;51178;-44
2022/11/17 13:11:57;;;;;;;;;14.75;12.00;;;;;;;;5035334;28;51155;-44
2022/11/17 13:14:52;;;;;;;;;14.25;12.00;;;;;;;;5038587;28;51981;-43
2022/11/17 13:17:41;;;;;;;;;15.50;11.25;;;;;;;;5038707;28;51177;-43
2022/11/17 13:20:27;;;;;;;;;13.50;12.00;;;;;;;;5038572;28;51409;-44
2022/11/17 13:23:14;;;;;;;;;15.50;12.50;;;;;;;;5038595;28;51516;-43
2022/11/17 13:26:18;;;;;;;;;13.00;11.75;;;;;;;;5039097;28;51236;-44
2022/11/17 13:29:03;;;;;;;;;13.75;12.50;;;;;;;;5040259;28;51173;-44
2022/11/17 13:31:47;;;;;;;;;11.50;9.00;;;;;;;;5039326;28;51276;-44
2022/11/17 13:34:32;;;;;;;;;14.25;11.75;;;;;;;;5039852;28;51147;-42
2022/11/17 13:37:18;;;;;;;;;10.50;10.00;;;;;;;;5040901;28;51250;-44
2022/11/17 13:40:18;;;;;;;;;12.50;9.00;;;;;;;;5040585;28;52188;-44
2022/11/17 13:43:04;;;;;;;;;10.25;8.25;;;;;;;;5039184;28;51641;-45
2022/11/17 13:45:49;;;;;;;;;8.00;5.75;;;;;;;;5040834;28;51160;-43
2022/11/17 13:48:38;;;;;;;;;9.75;8.25;;;;;;;;5040492;28;51035;-45
2022/11/17 13:51:26;;;;;;;;;9.75;7.00;;;;;;;;5040179;28;51142;-44
2022/11/17 13:54:11;;;;;;;;;12.50;9.50;;;;;;;;5040645;28;51093;-43
2022/11/17 13:56:57;;;;;;;;;12.75;8.00;;;;;;;;5040261;28;51057;-43
2022/11/17 13:59:43;;;;;;;;;8.00;8.00;;;;;;;;5040230;28;51092;-44
2022/11/17 14:02:28;;;;;;;;;8.75;7.25;;;;;;;;5039888;28;51082;-44
2022/11/17 14:05:18;;;;;;;;;9.25;8.00;;;;;;;;5040359;28;51114;-44
2022/11/17 14:08:10;;;;;;;;;7.50;7.50;;;;;;;;5040164;28;51132;-44
2022/11/17 14:11:14;;;;;;;;;10.00;8.25;;;;;;;;5040186;28;51030;-43
2022/11/17 14:14:00;;;;;;;;;14.00;9.00;;;;;;;;5039188;28;51482;-44
2022/11/17 14:16:44;;;;;;;;;9.25;6.50;;;;;;;;5039775;28;51125;-42
2022/11/17 14:19:31;;;;;;;;;15.50;9.25;;;;;;;;5040116;28;51195;-45
2022/11/17 14:22:16;;;;;;;;;11.50;8.25;;;;;;;;5038996;28;51121;-44
2022/11/17 14:25:00;;;;;;;;;13.75;7.50;;;;;;;;5039505;28;50971;-43
2022/11/17 14:27:45;;;;;;;;;10.50;7.50;;;;;;;;5040042;28;51164;-46
2022/11/17 14:30:29;;;;;;;;;9.50;7.00;;;;;;;;5040028;28;51401;-42
2022/11/17 14:33:13;;;;;;;;;9.75;8.00;;;;;;;;5032637;28;51239;-43
2022/11/17 14:35:58;;;;;;;;;10.75;8.25;;;;;;;;5039986;28;51118;-44
2022/11/17 14:38:46;;;;;;;;;10.00;7.75;;;;;;;;5038798;28;51725;-43
2022/11/17 14:41:31;;;;;;;;;9.25;8.25;;;;;;;;5039024;28;51209;-43
2022/11/17 14:44:15;;;;;;;;;12.00;8.00;;;;;;;;5039352;28;51123;-45
2022/11/17 14:46:59;;;;;;;;;14.00;10.75;;;;;;;;5039556;28;51129;-43
2022/11/17 14:49:44;;;;;;;;;11.25;8.25;;;;;;;;5039205;28;51140;-43
2022/11/17 14:52:28;;;;;;;;;8.00;7.25;;;;;;;;5039303;28;51021;-43
2022/11/17 14:55:13;;;;;;;;;9.75;8.50;;;;;;;;5033551;28;51037;-45
2022/11/17 14:57:58;;;;;;;;;12.75;7.25;;;;;;;;5038845;28;51051;-44
2022/11/17 15:00:42;;;;;;;;;9.25;7.25;;;;;;;;5039590;28;51397;-43
2022/11/17 15:03:27;;;;;;;;;10.75;8.00;;;;;;;;5038285;28;51478;-45
2022/11/17 15:06:12;;;;;;;;;12.00;10.25;;;;;;;;5037681;28;51137;-44
2022/11/17 15:09:00;;;;;;;;;9.25;9.25;;;;;;;;5038151;28;51380;-44
2022/11/17 15:11:45;;;;;;;;;11.00;8.50;;;;;;;;5039138;28;51145;-45
2022/11/17 15:14:29;;;;;;;;;8.25;8.00;;;;;;;;5038346;28;51195;-45
2022/11/17 15:17:14;;;;;;;;;12.75;10.00;;;;;;;;5038068;28;51183;-43
2022/11/17 15:19:58;;;;;;;;;15.00;13.00;;;;;;;;5037147;28;51163;-44
2022/11/17 15:22:42;;;;;;;;;10.00;9.00;;;;;;;;5035907;28;51156;-42
2022/11/17 15:25:27;;;;;;;;;13.25;8.75;;;;;;;;5036777;28;51303;-42
2022/11/17 15:28:11;;;;;;;;;10.50;8.50;;;;;;;;5036988;28;51078;-43
2022/11/17 15:30:56;;;;;;;;;7.25;7.25;;;;;;;;5026856;28;52334;-44
2022/11/17 15:33:41;;;;;;;;;11.25;8.00;;;;;;;;5037844;28;51176;-43
2022/11/17 15:36:25;;;;;;;;;14.25;10.00;;;;;;;;5041902;28;51457;-44
2022/11/17 15:39:10;;;;;;;;;10.50;8.50;;;;;;;;5040288;28;51560;-44
2022/11/17 15:41:54;;;;;;;;;10.00;8.75;;;;;;;;5043097;28;51154;-43
2022/11/17 15:44:38;;;;;;;;;11.50;10.75;;;;;;;;5043158;28;51136;-43
2022/11/17 15:47:23;;;;;;;;;9.25;7.50;;;;;;;;5042160;28;51196;-43
2022/11/17 15:50:07;;;;;;;;;7.00;7.00;;;;;;;;5038468;28;50953;-43
2022/11/17 15:52:52;;;;;;;;;12.00;9.00;;;;;;;;5042372;28;51468;-43
2022/11/17 15:55:38;;;;;;;;;8.00;8.00;;;;;;;;5042297;28;51149;-43
2022/11/17 15:58:22;;;;;;;;;14.75;9.00;;;;;;;;5042716;28;51360;-43
2022/11/17 16:01:06;;;;;;;;;13.00;8.25;;;;;;;;5042656;28;51071;-42
2022/11/17 16:03:51;;;;;;;;;9.00;9.00;;;;;;;;5042285;28;51190;-44
2022/11/17 16:06:36;;;;;;;;;14.00;10.75;;;;;;;;5042044;28;51104;-45
2022/11/17 16:09:21;;;;;;;;;6.00;4.50;;;;;;;;5042552;28;51145;-44
2022/11/17 16:12:05;;;;;;;;;12.00;9.25;;;;;;;;5041780;28;51105;-43
2022/11/17 16:14:49;;;;;;;;;13.50;11.00;;;;;;;;5042339;28;51164;-44
2022/11/17 16:17:34;;;;;;;;;12.50;9.75;;;;;;;;5041669;28;51057;-43
2022/11/17 16:20:18;;;;;;;;;9.75;9.00;;;;;;;;5042248;28;51034;-43
2022/11/17 16:23:03;;;;;;;;;9.00;9.00;;;;;;;;5041822;28;51471;-43
2022/11/17 16:25:47;;;;;;;;;9.00;9.00;;;;;;;;5042076;28;51203;-43
2022/11/17 16:28:32;;;;;;;;;11.50;9.25;;;;;;;;5041241;28;51231;-43
2022/11/17 16:31:20;;;;;;;;;16.75;10.25;;;;;;;;5041162;28;51279;-43
2022/11/17 16:34:12;;;;;;;;;12.25;10.00;;;;;;;;5041799;28;51535;-44
2022/11/17 16:36:56;;;;;;;;;12.25;9.00;;;;;;;;5041576;28;51151;-43
2022/11/17 16:39:41;;;;;;;;;10.75;8.00;;;;;;;;5042171;28;51109;-43
2022/11/17 16:42:25;;;;;;;;;11.00;9.25;;;;;;;;5041641;28;51140;-44
2022/11/17 16:45:10;;;;;;;;;10.25;8.00;;;;;;;;5041120;28;50992;-44
2022/11/17 16:47:54;;;;;;;;;11.00;10.00;;;;;;;;5040516;28;51369;-43
2022/11/17 16:50:39;;;;;;;;;5.00;4.75;;;;;;;;5041667;28;51034;-45
2022/11/17 16:53:23;;;;;;;;;16.00;9.00;;;;;;;;5041574;28;51098;-42
2022/11/17 16:56:09;;;;;;;;;10.50;10.00;;;;;;;;5041685;28;51095;-43
2022/11/17 16:58:53;;;;;;;;;14.25;9.75;;;;;;;;5038137;28;51885;-43
2022/11/17 17:01:37;;;;;;;;;10.00;10.00;;;;;;;;5041628;28;51096;-43
2022/11/17 17:04:22;;;;;;;;;13.50;8.00;;;;;;;;5041869;28;51175;-44
2022/11/17 17:07:06;;;;;;;;;13.50;10.00;;;;;;;;5040503;28;51140;-44
2022/11/17 17:09:51;;;;;;;;;12.50;8.00;;;;;;;;5040762;28;51069;-43
2022/11/17 17:12:35;;;;;;;;;12.50;9.25;;;;;;;;5040622;28;51893;-44
2022/11/17 17:15:20;;;;;;;;;10.00;7.50;;;;;;;;5040950;28;51101;-45
2022/11/17 17:18:04;;;;;;;;;9.00;7.25;;;;;;;;5039667;28;51465;-44
2022/11/17 17:20:49;;;;;;;;;13.75;10.00;;;;;;;;5040863;28;51024;-44
2022/11/17 17:23:33;;;;;;;;;7.50;7.50;;;;;;;;5040463;28;51326;-43
2022/11/17 17:26:19;;;;;;;;;13.00;10.00;;;;;;;;5040834;28;51086;-44
2022/11/17 17:29:04;;;;;;;;;11.00;8.50;;;;;;;;5040266;28;51207;-45
2022/11/17 17:31:48;;;;;;;;;11.50;10.00;;;;;;;;5040499;28;51054;-43